Time;durP1;ratioP1;P1;durP2;ratioP2;P2;SDS_P1;SDS_P2;PMS_P1;PMS_P2;Temp;Humidity;BMP_temperature;BMP_pressure;BME280_temperature;BME280_humidity;BME280_pressure;Samples;Min_cycle;Max_cycle;Signal;HPM_P1;HPM_P2
2021/08/15 00:01:12;;;;;;;16.20;12.38;;;21.60;15.70;;;;;;5114706;27;20071;-74
2021/08/15 00:04:01;;;;;;;16.85;12.63;;;21.60;16.20;;;;;;5112820;27;20535;-75
2021/08/15 00:06:52;;;;;;;16.80;13.32;;;21.50;17.20;;;;;;5115291;27;20142;-75
2021/08/15 00:09:41;;;;;;;17.55;13.50;;;21.50;18.00;;;;;;5111292;27;20062;-75
2021/08/15 00:12:29;;;;;;;15.40;13.55;;;21.50;18.50;;;;;;5098530;28;20044;-75
2021/08/15 00:15:19;;;;;;;19.42;14.15;;;21.40;19.90;;;;;;5106627;28;20117;-74
2021/08/15 00:18:07;;;;;;;19.50;12.88;;;21.30;21.10;;;;;;5113581;27;20040;-74
2021/08/15 00:20:56;;;;;;;16.08;13.18;;;21.30;21.20;;;;;;5108899;27;20035;-75
2021/08/15 00:23:46;;;;;;;16.92;13.43;;;21.30;21.50;;;;;;5109013;27;20051;-74
2021/08/15 00:26:35;;;;;;;17.67;13.43;;;21.30;21.60;;;;;;5108121;27;20047;-74
2021/08/15 00:29:29;;;;;;;31.67;14.27;;;21.30;21.20;;;;;;5110222;27;20457;-74
2021/08/15 00:32:17;;;;;;;19.08;13.95;;;21.30;21.80;;;;;;5107699;27;20092;-74
2021/08/15 00:35:07;;;;;;;20.42;14.45;;;21.10;22.70;;;;;;5108324;27;20039;-74
2021/08/15 00:37:55;;;;;;;20.52;15.07;;;21.00;24.20;;;;;;5111454;27;20143;-74
2021/08/15 00:40:45;;;;;;;18.15;14.23;;;20.90;25.20;;;;;;5114524;27;20036;-74
2021/08/15 00:43:33;;;;;;;19.73;13.52;;;20.90;25.10;;;;;;5114528;27;20063;-74
2021/08/15 00:46:24;;;;;;;21.50;14.55;;;20.90;25.40;;;;;;5109180;27;20055;-75
2021/08/15 00:49:12;;;;;;;19.27;14.73;;;20.90;26.00;;;;;;5108379;27;20495;-74
2021/08/15 00:52:00;;;;;;;20.50;15.52;;;20.70;26.70;;;;;;5089460;27;20048;-74
2021/08/15 00:54:49;;;;;;;19.98;14.60;;;20.70;29.30;;;;;;5113498;27;20105;-74
2021/08/15 00:57:41;;;;;;;16.45;14.25;;;20.70;29.50;;;;;;5116315;27;20054;-74
2021/08/15 01:00:30;;;;;;;17.17;13.70;;;20.70;28.80;;;;;;5108001;27;20699;-75
2021/08/15 01:03:18;;;;;;;18.73;14.45;;;20.70;29.40;;;;;;5107832;27;20118;-75
2021/08/15 01:06:08;;;;;;;18.33;13.80;;;20.70;29.00;;;;;;5113265;27;20051;-75
2021/08/15 01:08:56;;;;;;;17.90;13.95;;;20.80;28.10;;;;;;5109968;27;20253;-75
2021/08/15 01:11:45;;;;;;;19.15;13.80;;;20.90;28.20;;;;;;5110113;27;20584;-75
2021/08/15 01:14:35;;;;;;;15.90;12.45;;;21.00;27.30;;;;;;5097907;27;20047;-75
2021/08/15 01:17:24;;;;;;;20.27;12.70;;;21.00;26.90;;;;;;5098978;27;20074;-76
2021/08/15 01:20:20;;;;;;;16.55;12.38;;;21.00;26.40;;;;;;5108139;27;20050;-75
2021/08/15 01:23:08;;;;;;;16.02;12.82;;;21.00;26.60;;;;;;5106632;27;20072;-75
2021/08/15 01:25:57;;;;;;;14.20;11.57;;;21.00;26.90;;;;;;5104918;27;20528;-75
2021/08/15 01:28:48;;;;;;;15.30;12.48;;;20.80;27.50;;;;;;5111760;27;20060;-75
2021/08/15 01:31:36;;;;;;;17.83;12.20;;;20.80;28.50;;;;;;5111194;27;20066;-75
2021/08/15 01:34:25;;;;;;;17.27;12.18;;;20.90;28.30;;;;;;5110094;27;20047;-75
2021/08/15 01:37:13;;;;;;;15.25;11.55;;;20.90;28.40;;;;;;5107648;27;20044;-76
2021/08/15 01:40:03;;;;;;;15.40;12.20;;;20.80;28.10;;;;;;5106624;27;20046;-75
2021/08/15 01:42:51;;;;;;;13.43;12.00;;;20.70;29.40;;;;;;5100550;28;20055;-75
2021/08/15 01:45:40;;;;;;;14.25;11.73;;;20.70;29.40;;;;;;5109065;27;20046;-75
2021/08/15 01:48:29;;;;;;;15.88;13.10;;;20.70;29.40;;;;;;5111337;27;20051;-73
2021/08/15 01:51:18;;;;;;;17.17;12.77;;;20.60;29.80;;;;;;5091203;27;20232;-75
2021/08/15 01:54:06;;;;;;;15.93;12.63;;;20.50;30.50;;;;;;5114129;27;20040;-74
2021/08/15 01:56:54;;;;;;;19.95;13.10;;;20.40;32.10;;;;;;5113187;27;20062;-73
2021/08/15 01:59:43;;;;;;;15.93;13.43;;;20.20;33.60;;;;;;5108096;27;20047;-74
2021/08/15 02:02:32;;;;;;;16.27;12.75;;;20.10;35.80;;;;;;5109266;27;20063;-75
2021/08/15 02:05:21;;;;;;;15.98;13.07;;;20.10;36.60;;;;;;5109649;27;20495;-73
2021/08/15 02:08:10;;;;;;;16.90;13.02;;;20.10;35.50;;;;;;5108257;27;20052;-73
2021/08/15 02:10:58;;;;;;;16.38;12.80;;;20.10;37.30;;;;;;5113680;27;20115;-74
2021/08/15 02:13:47;;;;;;;17.65;13.43;;;20.10;37.20;;;;;;5106663;27;21209;-74
2021/08/15 02:16:36;;;;;;;15.55;12.68;;;20.10;36.60;;;;;;5102561;27;20518;-74
2021/08/15 02:19:25;;;;;;;15.27;13.23;;;20.00;37.30;;;;;;5087905;28;20048;-74
2021/08/15 02:22:14;;;;;;;16.30;13.73;;;20.00;37.30;;;;;;5106010;27;20051;-74
2021/08/15 02:25:03;;;;;;;18.13;13.30;;;20.00;37.30;;;;;;5106891;27;20281;-74
2021/08/15 02:27:51;;;;;;;15.48;12.82;;;19.90;37.30;;;;;;5110202;28;20051;-74
2021/08/15 02:30:41;;;;;;;16.92;13.00;;;19.90;37.30;;;;;;5107928;27;20040;-74
2021/08/15 02:33:29;;;;;;;18.88;13.57;;;19.90;37.30;;;;;;5109639;27;20036;-74
2021/08/15 02:36:19;;;;;;;19.65;13.15;;;19.90;37.30;;;;;;5108800;27;20505;-74
2021/08/15 02:39:07;;;;;;;16.17;13.23;;;19.80;37.20;;;;;;5109641;27;20044;-74
2021/08/15 02:41:55;;;;;;;22.98;13.73;;;19.80;37.20;;;;;;5108196;28;20043;-74
2021/08/15 02:44:44;;;;;;;20.73;14.13;;;19.80;37.70;;;;;;5111240;28;20527;-74
2021/08/15 02:47:32;;;;;;;19.42;14.00;;;19.80;37.80;;;;;;5097469;28;20126;-74
2021/08/15 02:50:22;;;;;;;18.52;14.05;;;19.90;37.60;;;;;;5086997;28;20491;-74
2021/08/15 02:53:11;;;;;;;18.90;13.90;;;19.80;37.90;;;;;;5106182;28;20047;-74
2021/08/15 02:56:00;;;;;;;19.55;13.93;;;19.80;39.30;;;;;;5103431;27;20048;-74
2021/08/15 02:58:48;;;;;;;20.25;14.63;;;19.70;39.90;;;;;;5111863;27;20088;-74
2021/08/15 03:01:37;;;;;;;21.20;15.32;;;19.80;40.60;;;;;;5093137;28;20066;-74
2021/08/15 03:04:25;;;;;;;20.83;15.38;;;19.80;40.30;;;;;;5099236;27;20043;-74
2021/08/15 03:07:15;;;;;;;18.05;14.05;;;19.70;40.60;;;;;;5104455;27;20048;-74
2021/08/15 03:10:06;;;;;;;19.20;14.80;;;19.70;40.70;;;;;;5103351;27;20036;-75
2021/08/15 03:12:54;;;;;;;18.63;13.80;;;19.70;41.40;;;;;;5117524;27;20055;-74
2021/08/15 03:15:43;;;;;;;15.70;12.98;;;19.60;41.10;;;;;;5113134;27;20081;-74
2021/08/15 03:18:31;;;;;;;20.58;13.88;;;19.60;41.30;;;;;;5106736;27;20036;-74
2021/08/15 03:21:20;;;;;;;16.52;13.40;;;19.60;41.50;;;;;;5109598;27;20044;-75
2021/08/15 03:24:09;;;;;;;16.60;14.20;;;19.60;41.30;;;;;;5117345;27;20047;-74
2021/08/15 03:26:59;;;;;;;20.55;14.40;;;19.50;41.90;;;;;;5116282;27;20047;-75
2021/08/15 03:29:47;;;;;;;17.52;13.77;;;19.40;43.50;;;;;;5107122;27;20486;-74
2021/08/15 03:32:36;;;;;;;20.33;15.23;;;19.40;43.40;;;;;;5106078;27;20040;-74
2021/08/15 03:35:24;;;;;;;19.42;15.45;;;19.50;43.50;;;;;;5118768;27;20047;-75
2021/08/15 03:38:12;;;;;;;18.45;14.30;;;19.40;44.40;;;;;;5119810;27;20627;-75
2021/08/15 03:41:01;;;;;;;17.27;13.75;;;19.50;44.60;;;;;;5115930;27;20039;-74
2021/08/15 03:43:50;;;;;;;17.50;14.80;;;19.60;44.30;;;;;;5112000;27;20058;-74
2021/08/15 03:46:40;;;;;;;21.70;14.20;;;19.60;44.60;;;;;;5112582;27;20316;-74
2021/08/15 03:49:28;;;;;;;18.60;14.00;;;19.50;44.30;;;;;;5108674;27;20647;-74
2021/08/15 03:52:17;;;;;;;15.73;13.88;;;19.40;44.50;;;;;;5112697;27;20172;-74
2021/08/15 03:55:07;;;;;;;16.17;13.85;;;19.40;44.70;;;;;;5114459;27;20043;-74
2021/08/15 03:57:55;;;;;;;19.65;13.88;;;19.40;44.00;;;;;;5112150;27;20038;-74
2021/08/15 04:00:45;;;;;;;18.95;13.90;;;19.40;43.80;;;;;;5108177;27;20038;-73
2021/08/15 04:03:33;;;;;;;18.63;13.45;;;19.30;43.70;;;;;;5104573;28;20475;-75
2021/08/15 04:06:22;;;;;;;17.63;13.50;;;19.30;44.50;;;;;;5110893;27;20059;-75
2021/08/15 04:09:11;;;;;;;19.13;14.13;;;19.20;44.90;;;;;;5116610;27;20070;-75
2021/08/15 04:11:59;;;;;;;17.83;14.20;;;19.20;45.20;;;;;;5108982;27;20097;-74
2021/08/15 04:14:47;;;;;;;20.33;14.50;;;19.20;45.20;;;;;;5109232;27;20043;-75
2021/08/15 04:17:37;;;;;;;18.92;15.05;;;19.20;45.20;;;;;;5095712;27;20050;-75
2021/08/15 04:20:25;;;;;;;17.95;13.90;;;19.20;45.30;;;;;;5084661;27;20047;-75
2021/08/15 04:23:14;;;;;;;18.95;14.30;;;19.10;45.80;;;;;;5107537;27;20116;-75
2021/08/15 04:26:03;;;;;;;17.77;14.88;;;19.00;45.90;;;;;;5110394;27;20047;-75
2021/08/15 04:28:52;;;;;;;18.25;14.95;;;19.10;46.20;;;;;;5107125;27;20057;-75
2021/08/15 04:31:40;;;;;;;18.50;15.30;;;19.00;46.00;;;;;;5105060;27;20048;-75
2021/08/15 04:34:30;;;;;;;18.52;14.95;;;19.00;48.50;;;;;;5096399;27;20062;-75
2021/08/15 04:37:18;;;;;;;18.83;15.43;;;18.90;49.00;;;;;;5092126;28;20039;-75
2021/08/15 04:40:08;;;;;;;17.20;15.23;;;19.00;48.30;;;;;;5103981;27;20047;-75
2021/08/15 04:42:56;;;;;;;19.02;15.75;;;19.40;46.90;;;;;;5093629;28;20475;-75
2021/08/15 04:45:46;;;;;;;17.38;14.88;;;19.80;41.20;;;;;;5109251;27;20048;-74
2021/08/15 04:48:35;;;;;;;19.52;15.95;;;19.80;34.80;;;;;;5111669;27;20063;-75
2021/08/15 04:51:24;;;;;;;17.75;14.60;;;20.10;35.30;;;;;;5110393;27;20055;-75
2021/08/15 04:54:13;;;;;;;21.00;14.65;;;20.40;32.30;;;;;;5098045;27;20046;-74
2021/08/15 04:57:01;;;;;;;16.05;14.00;;;20.60;29.30;;;;;;5110710;27;20043;-74
2021/08/15 04:59:50;;;;;;;16.88;13.68;;;21.10;24.40;;;;;;5104117;27;20046;-74
2021/08/15 05:02:38;;;;;;;16.70;13.40;;;21.50;20.00;;;;;;5104824;28;20055;-74
2021/08/15 05:05:27;;;;;;;17.10;13.50;;;21.80;16.60;;;;;;5106404;27;20054;-74
2021/08/15 05:08:17;;;;;;;14.70;12.43;;;21.80;15.50;;;;;;5106172;28;20048;-74
2021/08/15 05:11:05;;;;;;;17.98;12.88;;;22.10;11.90;;;;;;5082422;28;20054;-74
2021/08/15 05:13:53;;;;;;;13.82;12.20;;;22.30;11.20;;;;;;5108389;27;20387;-74
2021/08/15 05:16:42;;;;;;;14.05;11.10;;;22.20;10.50;;;;;;5106660;27;20056;-74
2021/08/15 05:19:31;;;;;;;18.05;11.77;;;22.60;9.40;;;;;;5105989;27;20039;-74
2021/08/15 05:22:19;;;;;;;15.60;12.55;;;22.90;7.10;;;;;;5113498;27;20517;-74
2021/08/15 05:25:10;;;;;;;19.50;12.57;;;23.00;6.00;;;;;;5113964;27;20043;-73
2021/08/15 05:27:59;;;;;;;13.75;12.13;;;23.10;7.50;;;;;;5111212;27;20047;-74
2021/08/15 05:30:47;;;;;;;17.80;12.63;;;23.30;4.20;;;;;;5100293;27;20039;-75
2021/08/15 05:33:36;;;;;;;17.38;12.50;;;23.40;2.30;;;;;;5110387;27;20115;-74
2021/08/15 05:36:24;;;;;;;17.40;12.48;;;23.20;3.20;;;;;;5114787;27;20049;-74
2021/08/15 05:39:12;;;;;;;13.93;12.13;;;23.60;3.60;;;;;;5106987;27;20042;-74
2021/08/15 05:42:02;;;;;;;15.38;12.18;;;22.90;5.70;;;;;;5105248;27;20039;-75
2021/08/15 05:44:50;;;;;;;16.25;12.55;;;22.30;8.70;;;;;;5108061;27;20054;-75
2021/08/15 05:47:39;;;;;;;16.05;13.00;;;23.40;5.60;;;;;;5111729;27;20275;-74
2021/08/15 05:50:27;;;;;;;17.50;13.55;;;23.10;7.40;;;;;;5105770;27;20059;-74
2021/08/15 05:53:16;;;;;;;15.93;12.52;;;21.60;15.20;;;;;;5110767;27;20054;-74
2021/08/15 05:56:04;;;;;;;17.50;13.70;;;21.40;17.30;;;;;;5114166;27;20052;-74
2021/08/15 05:58:54;;;;;;;16.15;12.65;;;21.20;19.10;;;;;;5110151;27;20051;-74
2021/08/15 06:01:42;;;;;;;17.20;12.90;;;21.10;21.60;;;;;;5113139;27;20047;-75
2021/08/15 06:04:31;;;;;;;18.58;14.13;;;21.20;22.50;;;;;;5110640;27;20070;-74
2021/08/15 06:07:19;;;;;;;15.85;12.63;;;21.50;20.50;;;;;;5109508;27;20094;-75
2021/08/15 06:10:09;;;;;;;16.13;12.93;;;21.90;19.50;;;;;;5104850;27;20065;-73
2021/08/15 06:12:58;;;;;;;16.58;13.77;;;22.00;18.20;;;;;;5111465;27;20039;-75
2021/08/15 06:15:48;;;;;;;19.55;13.95;;;22.10;18.30;;;;;;5108618;27;20573;-75
2021/08/15 06:18:37;;;;;;;17.17;14.00;;;22.20;16.80;;;;;;5108014;27;20078;-75
2021/08/15 06:21:26;;;;;;;16.85;13.35;;;22.10;16.50;;;;;;5105307;27;20047;-75
2021/08/15 06:24:14;;;;;;;16.20;13.02;;;22.00;16.00;;;;;;5110617;27;20044;-75
2021/08/15 06:27:03;;;;;;;17.23;13.40;;;22.60;14.90;;;;;;5111651;27;20032;-74
2021/08/15 06:29:52;;;;;;;18.67;13.40;;;22.80;14.10;;;;;;5108889;27;20126;-75
2021/08/15 06:32:48;;;;;;;17.42;13.10;;;22.80;11.80;;;;;;5105828;27;20414;-75
2021/08/15 06:35:37;;;;;;;16.60;12.63;;;22.40;13.50;;;;;;5091875;28;20418;-74
2021/08/15 06:38:26;;;;;;;17.23;13.45;;;22.60;14.40;;;;;;5107681;28;20050;-75
2021/08/15 06:41:14;;;;;;;17.05;13.30;;;22.60;12.70;;;;;;5110173;27;20043;-75
2021/08/15 06:44:03;;;;;;;14.90;13.05;;;22.70;12.00;;;;;;5109089;28;20418;-75
2021/08/15 06:46:51;;;;;;;17.63;12.50;;;22.80;10.90;;;;;;5109229;28;20055;-73
2021/08/15 06:49:41;;;;;;;17.10;13.10;;;23.00;10.40;;;;;;5108933;28;20140;-74
2021/08/15 06:52:29;;;;;;;15.57;12.93;;;23.30;10.50;;;;;;5114435;28;20047;-75
2021/08/15 06:55:18;;;;;;;15.68;12.75;;;23.30;10.40;;;;;;5113333;28;20051;-75
2021/08/15 06:58:06;;;;;;;16.17;12.70;;;22.90;10.70;;;;;;5107888;28;20043;-75
2021/08/15 07:00:54;;;;;;;16.67;12.98;;;23.20;12.00;;;;;;5108804;28;20051;-75
2021/08/15 07:03:43;;;;;;;18.48;13.23;;;23.50;11.10;;;;;;5112925;27;20427;-75
2021/08/15 07:06:33;;;;;;;16.02;12.50;;;23.40;11.30;;;;;;5112951;28;20082;-75
2021/08/15 07:09:21;;;;;;;18.23;13.52;;;23.50;11.10;;;;;;5108436;27;20544;-76
2021/08/15 07:12:10;;;;;;;15.50;13.77;;;23.40;11.00;;;;;;5105476;28;20040;-74
2021/08/15 07:14:58;;;;;;;16.42;13.45;;;23.60;10.70;;;;;;5107905;28;20036;-74
2021/08/15 07:17:47;;;;;;;23.33;12.98;;;23.50;10.70;;;;;;5115896;27;20260;-74
2021/08/15 07:20:35;;;;;;;15.63;12.45;;;23.60;9.60;;;;;;5108118;28;20048;-75
2021/08/15 07:23:25;;;;;;;14.90;13.25;;;23.30;9.80;;;;;;5107672;28;20418;-75
2021/08/15 07:26:13;;;;;;;15.38;12.48;;;23.50;9.80;;;;;;5108205;28;20418;-75
2021/08/15 07:29:02;;;;;;;15.48;12.55;;;23.90;8.90;;;;;;5110400;28;20597;-74
2021/08/15 07:31:50;;;;;;;17.55;12.50;;;23.60;8.70;;;;;;5112879;28;20142;-74
2021/08/15 07:34:39;;;;;;;16.23;12.18;;;24.00;7.40;;;;;;5110554;28;20047;-74
2021/08/15 07:37:27;;;;;;;19.80;12.68;;;24.10;6.10;;;;;;5110052;28;20055;-74
2021/08/15 07:40:18;;;;;;;18.40;13.23;;;24.10;6.00;;;;;;5111377;27;20361;-75
2021/08/15 07:43:06;;;;;;;15.85;13.18;;;24.40;5.00;;;;;;5114262;27;20045;-75
2021/08/15 07:45:55;;;;;;;15.70;12.93;;;24.20;4.90;;;;;;5112919;27;20055;-73
2021/08/15 07:48:43;;;;;;;14.32;12.13;;;24.20;4.20;;;;;;5111762;27;20055;-75
2021/08/15 07:51:32;;;;;;;16.95;12.70;;;24.50;2.50;;;;;;5106899;27;20149;-75
2021/08/15 07:54:21;;;;;;;16.05;12.75;;;24.40;2.40;;;;;;5111947;27;20052;-75
2021/08/15 07:57:11;;;;;;;16.35;12.40;;;24.70;1.80;;;;;;5117151;27;20430;-75
2021/08/15 07:59:59;;;;;;;18.67;12.52;;;24.60;2.30;;;;;;5112181;27;20046;-73
2021/08/15 08:02:48;;;;;;;14.05;11.73;;;24.50;1.00;;;;;;5109642;27;20065;-74
2021/08/15 08:05:38;;;;;;;19.15;12.45;;;24.80;1.00;;;;;;5112231;27;20405;-73
2021/08/15 08:08:27;;;;;;;16.90;13.02;;;24.80;1.00;;;;;;5115580;27;20527;-75
2021/08/15 08:11:16;;;;;;;18.42;12.60;;;24.60;1.00;;;;;;5116202;27;20043;-74
2021/08/15 08:14:06;;;;;;;17.17;13.45;;;24.50;1.00;;;;;;5111815;27;20051;-73
2021/08/15 08:16:54;;;;;;;15.77;11.80;;;25.00;1.00;;;;;;5111791;27;20062;-75
2021/08/15 08:19:44;;;;;;;16.10;12.27;;;25.10;1.00;;;;;;5111986;27;20157;-75
2021/08/15 08:22:32;;;;;;;16.08;11.95;;;25.10;1.00;;;;;;5111313;27;20442;-75
2021/08/15 08:25:20;;;;;;;18.83;12.77;;;25.30;1.00;;;;;;5117657;27;20043;-75
2021/08/15 08:28:09;;;;;;;15.98;11.50;;;25.30;1.00;;;;;;5111564;27;20054;-75
2021/08/15 08:30:58;;;;;;;17.90;12.30;;;25.30;1.00;;;;;;5108870;27;20503;-75
2021/08/15 08:33:47;;;;;;;15.50;12.35;;;25.40;1.00;;;;;;5092867;27;20035;-75
2021/08/15 08:36:35;;;;;;;17.27;11.57;;;25.70;1.00;;;;;;5117800;27;20392;-75
2021/08/15 08:39:24;;;;;;;14.52;12.15;;;25.80;1.00;;;;;;5112479;27;20390;-76
2021/08/15 08:42:13;;;;;;;16.45;11.90;;;25.80;1.00;;;;;;5106291;27;20512;-75
2021/08/15 08:45:02;;;;;;;18.30;11.43;;;25.80;1.00;;;;;;5111274;27;20043;-75
2021/08/15 08:47:54;;;;;;;16.50;11.98;;;26.30;1.00;;;;;;5111120;27;20043;-75
2021/08/15 08:50:42;;;;;;;16.15;11.85;;;26.60;1.00;;;;;;5110175;27;20142;-75
2021/08/15 08:53:33;;;;;;;16.77;11.95;;;26.40;1.00;;;;;;5106963;27;20062;-74
2021/08/15 08:56:24;;;;;;;15.90;11.48;;;26.40;1.00;;;;;;5105593;27;20510;-74
2021/08/15 08:59:12;;;;;;;15.93;10.80;;;26.20;1.00;;;;;;5116227;27;20055;-74
2021/08/15 09:02:01;;;;;;;15.45;10.85;;;26.60;1.00;;;;;;5117109;27;20046;-74
2021/08/15 09:04:51;;;;;;;13.90;10.95;;;27.00;1.00;;;;;;5113429;27;20047;-74
2021/08/15 09:07:41;;;;;;;13.75;10.60;;;26.80;1.00;;;;;;5106123;27;20044;-74
2021/08/15 09:10:32;;;;;;;13.43;11.45;;;26.90;1.00;;;;;;5106336;27;20632;-74
2021/08/15 09:13:26;;;;;;;12.73;10.00;;;27.00;1.00;;;;;;5108346;27;20416;-74
2021/08/15 09:16:14;;;;;;;11.57;9.70;;;27.10;1.00;;;;;;5112043;27;20043;-74
2021/08/15 09:19:24;;;;;;;15.60;9.80;;;27.70;1.00;;;;;;5108973;27;20499;-74
2021/08/15 09:22:17;;;;;;;14.63;9.75;;;27.70;1.00;;;;;;5088236;27;20043;-74
2021/08/15 09:25:10;;;;;;;13.07;9.75;;;27.30;1.00;;;;;;5100221;27;20035;-74
2021/08/15 09:27:59;;;;;;;11.73;9.10;;;27.10;1.00;;;;;;5117828;27;20036;-74
2021/08/15 09:30:47;;;;;;;11.35;9.68;;;27.50;1.00;;;;;;5108499;27;20047;-74
2021/08/15 09:33:40;;;;;;;13.02;9.65;;;27.70;1.00;;;;;;5109124;27;20035;-74
2021/08/15 09:36:31;;;;;;;14.98;10.70;;;27.70;1.00;;;;;;5113207;27;20053;-74
2021/08/15 09:39:33;;;;;;;15.43;11.40;;;27.50;1.00;;;;;;5111746;27;20044;-74
2021/08/15 09:42:39;;;;;;;13.82;10.77;;;27.30;1.00;;;;;;5107577;27;20039;-74
2021/08/15 09:45:37;;;;;;;13.40;10.15;;;27.60;1.00;;;;;;5081255;27;20487;-74
2021/08/15 09:48:31;;;;;;;13.52;9.85;;;28.20;1.00;;;;;;5107379;27;20058;-74
2021/08/15 09:51:21;;;;;;;;;;;28.30;1.00;;;;;;5111519;27;20066;-74
2021/08/15 09:54:17;;;;;;;15.25;9.95;;;28.30;1.00;;;;;;5107515;27;20302;-75
2021/08/15 09:57:10;;;;;;;12.18;9.27;;;28.70;1.00;;;;;;5111420;27;20052;-74
2021/08/15 09:59:59;;;;;;;12.27;9.75;;;28.60;1.00;;;;;;5109179;27;20097;-74
2021/08/15 10:02:48;;;;;;;11.65;9.63;;;28.80;1.00;;;;;;5104723;27;20065;-74
2021/08/15 10:05:36;;;;;;;13.50;9.13;;;28.40;1.00;;;;;;5113640;27;20039;-74
2021/08/15 10:08:25;;;;;;;13.25;9.38;;;28.70;1.00;;;;;;5109350;27;20048;-74
2021/08/15 10:11:13;;;;;;;10.05;8.90;;;29.00;1.00;;;;;;5109785;27;20039;-74
2021/08/15 10:14:04;;;;;;;16.33;9.10;;;28.90;1.00;;;;;;5106052;27;20387;-74
2021/08/15 10:16:58;;;;;;;12.60;8.45;;;29.20;1.00;;;;;;5110243;27;20047;-74
2021/08/15 10:19:54;;;;;;;9.95;7.63;;;29.20;1.00;;;;;;5105422;27;20054;-74
2021/08/15 10:22:42;;;;;;;10.00;8.45;;;29.50;1.00;;;;;;5109314;27;20063;-74
2021/08/15 10:25:33;;;;;;;10.57;8.48;;;29.10;1.00;;;;;;5107016;27;20414;-74
2021/08/15 10:28:41;;;;;;;12.63;8.45;;;29.30;1.00;;;;;;5109195;27;20043;-74
2021/08/15 10:32:02;;;;;;;11.52;8.75;;;29.50;1.00;;;;;;5103042;27;20049;-75
2021/08/15 10:35:17;;;;;;;14.00;8.40;;;29.20;1.00;;;;;;5106620;27;20051;-75
2021/08/15 10:38:08;;;;;;;8.98;8.07;;;29.40;1.00;;;;;;5106646;28;20376;-76
2021/08/15 10:40:57;;;;;;;11.68;8.57;;;29.40;1.00;;;;;;5092036;28;20084;-75
2021/08/15 10:44:07;;;;;;;12.57;8.70;;;29.00;1.00;;;;;;5109120;28;20058;-74
2021/08/15 10:47:16;;;;;;;10.98;8.27;;;29.30;1.00;;;;;;5107913;28;20053;-74
2021/08/15 10:50:07;;;;;;;11.80;8.52;;;29.70;1.00;;;;;;5101103;27;20036;-74
2021/08/15 10:52:56;;;;;;;12.38;8.65;;;29.80;1.00;;;;;;5107787;27;20413;-74
2021/08/15 10:55:48;;;;;;;8.73;7.82;;;29.50;1.00;;;;;;5109874;28;20078;-74
2021/08/15 10:58:38;;;;;;;14.63;8.77;;;30.20;1.00;;;;;;5111353;28;20055;-73
2021/08/15 11:01:44;;;;;;;12.32;8.70;;;29.70;1.00;;;;;;5109175;28;20454;-74
2021/08/15 11:04:33;;;;;;;11.05;8.25;;;29.70;1.00;;;;;;5086777;28;20899;-74
2021/08/15 11:07:34;;;;;;;12.10;8.75;;;29.40;1.00;;;;;;5108208;28;20047;-75
2021/08/15 11:10:23;;;;;;;12.43;9.02;;;29.40;1.00;;;;;;5109653;28;20184;-74
2021/08/15 11:13:15;;;;;;;13.57;8.82;;;29.10;1.00;;;;;;5107058;27;20051;-75
2021/08/15 11:16:41;;;;;;;11.38;9.80;;;29.00;1.00;;;;;;5112901;27;20299;-75
2021/08/15 11:19:31;;;;;;;11.05;8.55;;;28.70;1.00;;;;;;5115373;27;20442;-74
2021/08/15 11:22:27;;;;;;;9.82;8.82;;;28.70;1.00;;;;;;5109921;27;20051;-75
2021/08/15 11:25:27;;;;;;;13.43;8.70;;;28.60;1.00;;;;;;5114188;27;20059;-74
2021/08/15 11:28:17;;;;;;;10.65;8.68;;;28.60;1.00;;;;;;5119334;27;20047;-74
2021/08/15 11:31:05;;;;;;;10.05;9.05;;;28.10;1.00;;;;;;5111522;27;20091;-74
2021/08/15 11:34:06;;;;;;;10.52;9.40;;;28.10;1.00;;;;;;5106074;27;20498;-75
2021/08/15 11:36:56;;;;;;;15.82;9.38;;;28.50;1.00;;;;;;5110964;27;20051;-74
2021/08/15 11:39:44;;;;;;;13.73;9.18;;;28.80;1.00;;;;;;5089075;27;20193;-75
2021/08/15 11:42:34;;;;;;;11.40;9.00;;;29.00;1.00;;;;;;5110941;27;20524;-75
2021/08/15 11:45:31;;;;;;;12.80;8.98;;;29.20;1.00;;;;;;5082194;22;20043;-74
2021/08/15 11:48:22;;;;;;;14.57;9.70;;;29.50;1.00;;;;;;5076512;28;20066;-73
2021/08/15 11:51:10;;;;;;;11.48;10.25;;;29.40;1.00;;;;;;5095807;28;20040;-73
2021/08/15 11:53:59;;;;;;;12.23;8.68;;;28.90;1.00;;;;;;5091152;28;20416;-74
2021/08/15 11:56:58;;;;;;;13.82;9.13;;;28.70;1.00;;;;;;5082283;28;20474;-74
2021/08/15 12:00:01;;;;;;;10.77;8.93;;;29.00;1.00;;;;;;5082648;28;20044;-73
2021/08/15 12:03:07;;;;;;;11.00;8.70;;;29.30;1.00;;;;;;5082422;28;20147;-74
2021/08/15 12:05:57;;;;;;;11.68;9.35;;;29.40;1.00;;;;;;5085272;28;20052;-74
2021/08/15 12:08:45;;;;;;;12.52;9.38;;;29.30;1.00;;;;;;5085594;28;20051;-74
2021/08/15 12:11:35;;;;;;;13.43;9.32;;;29.30;1.00;;;;;;5083335;28;20507;-74
2021/08/15 12:14:34;;;;;;;11.43;9.07;;;29.40;1.00;;;;;;5071115;28;20044;-74
2021/08/15 12:17:24;;;;;;;16.33;8.98;;;29.20;1.00;;;;;;5077372;28;20197;-74
2021/08/15 12:20:19;;;;;;;10.52;8.73;;;29.20;1.00;;;;;;5084449;28;20048;-74
2021/08/15 12:23:07;;;;;;;12.55;8.55;;;29.30;1.00;;;;;;5085601;28;20058;-74
2021/08/15 12:26:14;;;;;;;9.32;8.40;;;29.30;1.00;;;;;;5086271;28;20062;-74
2021/08/15 12:29:04;;;;;;;11.18;8.65;;;30.10;1.00;;;;;;5084901;28;20048;-74
2021/08/15 12:32:07;;;;;;;11.45;8.32;;;30.30;1.00;;;;;;5081543;28;20052;-72
2021/08/15 12:34:58;;;;;;;10.50;8.05;;;30.10;1.00;;;;;;5081177;28;20503;-76
2021/08/15 12:37:47;;;;;;;10.80;8.43;;;30.20;1.00;;;;;;5087650;28;20047;-75
2021/08/15 12:40:36;;;;;;;9.45;7.75;;;30.30;1.00;;;;;;5083780;28;20049;-74
2021/08/15 12:43:26;;;;;;;9.70;8.50;;;30.70;1.00;;;;;;5077369;28;20055;-75
2021/08/15 12:46:23;;;;;;;9.00;7.75;;;30.50;1.00;;;;;;5077931;28;20060;-75
2021/08/15 12:49:21;;;;;;;14.15;8.32;;;30.30;1.00;;;;;;5059862;28;20047;-73
2021/08/15 12:52:18;;;;;;;12.75;8.88;;;29.70;1.00;;;;;;5083159;28;20059;-75
2021/08/15 12:55:20;;;;;;;11.52;8.10;;;29.70;1.00;;;;;;5080089;28;20121;-74
2021/08/15 12:58:10;;;;;;;8.88;7.60;;;29.70;1.00;;;;;;5086475;28;20453;-74
2021/08/15 13:01:02;;;;;;;9.45;7.82;;;29.70;1.00;;;;;;5081058;28;20051;-74
2021/08/15 13:03:51;;;;;;;10.40;8.48;;;30.10;1.00;;;;;;5066356;28;20530;-74
2021/08/15 13:06:41;;;;;;;12.50;8.35;;;29.70;1.00;;;;;;5077976;28;20047;-74
2021/08/15 13:09:31;;;;;;;10.35;8.35;;;29.90;1.00;;;;;;5083592;28;20054;-74
2021/08/15 13:12:20;;;;;;;11.60;7.75;;;30.00;1.00;;;;;;5081635;28;20040;-74
2021/08/15 13:15:10;;;;;;;15.45;8.15;;;29.70;1.00;;;;;;5078002;28;20047;-74
2021/08/15 13:17:58;;;;;;;8.90;7.28;;;29.70;1.00;;;;;;5079851;28;20051;-74
2021/08/15 13:20:47;;;;;;;9.65;6.40;;;29.50;1.00;;;;;;5079108;28;20048;-73
2021/08/15 13:23:35;;;;;;;9.40;7.38;;;30.30;1.00;;;;;;5081178;28;20048;-74
2021/08/15 13:26:25;;;;;;;11.57;7.35;;;30.50;1.00;;;;;;5086929;28;20522;-74
2021/08/15 13:29:13;;;;;;;12.07;7.88;;;30.10;1.00;;;;;;5070942;28;20504;-74
2021/08/15 13:32:02;;;;;;;9.65;7.30;;;30.40;1.00;;;;;;5071987;28;20044;-75
2021/08/15 13:34:55;;;;;;;8.77;7.30;;;30.20;1.00;;;;;;5073635;28;20500;-74
2021/08/15 13:37:43;;;;;;;9.38;7.80;;;30.70;1.00;;;;;;5086248;28;20058;-74
2021/08/15 13:40:32;;;;;;;9.57;7.65;;;30.30;1.00;;;;;;5079893;28;20043;-74
2021/08/15 13:43:22;;;;;;;8.65;7.15;;;29.60;1.00;;;;;;5081449;28;20047;-74
2021/08/15 13:46:10;;;;;;;8.93;7.53;;;29.60;1.00;;;;;;5073470;28;20120;-74
2021/08/15 13:48:59;;;;;;;11.18;7.70;;;29.80;1.00;;;;;;5075739;28;20052;-74
2021/08/15 13:51:48;;;;;;;10.80;7.95;;;29.80;1.00;;;;;;5077860;28;20194;-74
2021/08/15 13:54:36;;;;;;;10.40;7.25;;;29.60;1.00;;;;;;5074891;28;20078;-75
2021/08/15 13:57:24;;;;;;;7.40;6.30;;;28.50;1.00;;;;;;5080463;28;20059;-74
2021/08/15 14:00:15;;;;;;;9.35;6.25;;;27.60;1.00;;;;;;5074164;28;20048;-74
2021/08/15 14:03:04;;;;;;;6.68;5.38;;;27.40;1.00;;;;;;5070048;28;20048;-74
2021/08/15 14:05:52;;;;;;;10.65;6.30;;;27.20;1.00;;;;;;5083001;28;20486;-75
2021/08/15 14:08:41;;;;;;;8.48;6.07;;;27.10;1.00;;;;;;5085319;28;20063;-74
2021/08/15 14:11:29;;;;;;;11.43;6.72;;;27.10;1.00;;;;;;5085594;28;20047;-75
2021/08/15 14:14:19;;;;;;;11.40;6.70;;;27.00;1.00;;;;;;5075435;28;20036;-75
2021/08/15 14:17:09;;;;;;;10.40;6.70;;;26.60;1.00;;;;;;5082684;28;20438;-75
2021/08/15 14:19:59;;;;;;;16.27;7.68;;;25.70;1.30;;;;;;5077980;28;20047;-75
2021/08/15 14:22:48;;;;;;;13.27;7.18;;;24.80;10.40;;;;;;5070108;28;20052;-75
2021/08/15 14:25:39;;;;;;;18.38;9.60;;;22.30;99.90;;;;;;5073382;28;20055;-74
2021/08/15 14:28:28;;;;;;;15.70;6.90;;;22.00;56.20;;;;;;5082809;28;20062;-76
2021/08/15 14:31:16;;;;;;;14.15;8.85;;;20.60;54.70;;;;;;5083533;28;20507;-77
2021/08/15 14:34:06;;;;;;;18.17;9.45;;;20.80;60.70;;;;;;5072726;28;20047;-77